sensor_id;sensor_type;location;lat;lon;timestamp;P1;durP1;ratioP1;P2;durP2;ratioP2
16312;SDS011;8265;52.622;13.296;2023-10-31T00:04:53;1.30;;;1.20;;
16312;SDS011;8265;52.622;13.296;2023-10-31T00:10:14;3.00;;;2.70;;
16312;SDS011;8265;52.622;13.296;2023-10-31T00:15:35;3.90;;;2.00;;
16312;SDS011;8265;52.622;13.296;2023-10-31T00:20:56;28.90;;;1.10;;
16312;SDS011;8265;52.622;13.296;2023-10-31T00:26:17;1.40;;;1.30;;
16312;SDS011;8265;52.622;13.296;2023-10-31T00:31:38;1.70;;;1.60;;
16312;SDS011;8265;52.622;13.296;2023-10-31T00:36:59;3.30;;;2.60;;
16312;SDS011;8265;52.622;13.296;2023-10-31T00:42:20;2.60;;;1.80;;
16312;SDS011;8265;52.622;13.296;2023-10-31T00:47:41;1.00;;;1.00;;
16312;SDS011;8265;52.622;13.296;2023-10-31T00:53:02;3.80;;;2.80;;
16312;SDS011;8265;52.622;13.296;2023-10-31T00:58:23;2.00;;;1.60;;
16312;SDS011;8265;52.622;13.296;2023-10-31T01:03:44;4.70;;;4.30;;
16312;SDS011;8265;52.622;13.296;2023-10-31T01:09:05;7.40;;;3.40;;
16312;SDS011;8265;52.622;13.296;2023-10-31T01:14:26;1.90;;;1.70;;
16312;SDS011;8265;52.622;13.296;2023-10-31T01:19:47;2.90;;;2.00;;
16312;SDS011;8265;52.622;13.296;2023-10-31T01:25:08;0.90;;;0.90;;
16312;SDS011;8265;52.622;13.296;2023-10-31T01:30:29;1.90;;;1.60;;
16312;SDS011;8265;52.622;13.296;2023-10-31T01:35:50;10.10;;;3.80;;
16312;SDS011;8265;52.622;13.296;2023-10-31T01:41:11;1.30;;;1.00;;
16312;SDS011;8265;52.622;13.296;2023-10-31T01:46:32;2.10;;;1.90;;
16312;SDS011;8265;52.622;13.296;2023-10-31T01:51:53;0.70;;;0.70;;
16312;SDS011;8265;52.622;13.296;2023-10-31T01:57:14;2.00;;;1.90;;
16312;SDS011;8265;52.622;13.296;2023-10-31T02:02:35;11.10;;;2.60;;
16312;SDS011;8265;52.622;13.296;2023-10-31T02:07:56;1.80;;;1.70;;
16312;SDS011;8265;52.622;13.296;2023-10-31T02:13:17;2.20;;;1.80;;
16312;SDS011;8265;52.622;13.296;2023-10-31T02:18:38;2.20;;;1.70;;
16312;SDS011;8265;52.622;13.296;2023-10-31T02:24:00;1.90;;;1.80;;
16312;SDS011;8265;52.622;13.296;2023-10-31T02:29:21;1.90;;;1.40;;
16312;SDS011;8265;52.622;13.296;2023-10-31T02:34:41;1.60;;;1.50;;
16312;SDS011;8265;52.622;13.296;2023-10-31T02:40:02;0.90;;;0.70;;
16312;SDS011;8265;52.622;13.296;2023-10-31T02:45:23;1.70;;;1.60;;
16312;SDS011;8265;52.622;13.296;2023-10-31T02:50:44;2.70;;;2.20;;
16312;SDS011;8265;52.622;13.296;2023-10-31T02:56:05;1.60;;;1.50;;
16312;SDS011;8265;52.622;13.296;2023-10-31T03:01:29;1.10;;;1.10;;
16312;SDS011;8265;52.622;13.296;2023-10-31T03:06:47;0.50;;;0.50;;
16312;SDS011;8265;52.622;13.296;2023-10-31T03:12:08;11.20;;;1.80;;
16312;SDS011;8265;52.622;13.296;2023-10-31T03:17:29;2.80;;;1.60;;
16312;SDS011;8265;52.622;13.296;2023-10-31T03:22:50;2.30;;;1.60;;
16312;SDS011;8265;52.622;13.296;2023-10-31T03:28:20;0.80;;;0.80;;
16312;SDS011;8265;52.622;13.296;2023-10-31T03:33:32;3.10;;;2.30;;
16312;SDS011;8265;52.622;13.296;2023-10-31T03:38:53;3.90;;;2.20;;
16312;SDS011;8265;52.622;13.296;2023-10-31T03:44:14;2.10;;;1.60;;
16312;SDS011;8265;52.622;13.296;2023-10-31T03:49:41;1.70;;;1.60;;
16312;SDS011;8265;52.622;13.296;2023-10-31T03:54:56;2.30;;;2.10;;
16312;SDS011;8265;52.622;13.296;2023-10-31T04:00:17;5.50;;;3.00;;
16312;SDS011;8265;52.622;13.296;2023-10-31T04:05:38;7.40;;;3.10;;
16312;SDS011;8265;52.622;13.296;2023-10-31T04:10:59;2.30;;;1.20;;
16312;SDS011;8265;52.622;13.296;2023-10-31T04:16:20;2.50;;;1.60;;
16312;SDS011;8265;52.622;13.296;2023-10-31T04:21:41;3.90;;;2.80;;
16312;SDS011;8265;52.622;13.296;2023-10-31T04:27:02;0.90;;;0.90;;
16312;SDS011;8265;52.622;13.296;2023-10-31T04:32:23;1.50;;;1.40;;
16312;SDS011;8265;52.622;13.296;2023-10-31T04:37:44;1.40;;;1.30;;
16312;SDS011;8265;52.622;13.296;2023-10-31T04:43:05;2.80;;;1.70;;
16312;SDS011;8265;52.622;13.296;2023-10-31T04:48:26;15.70;;;2.30;;
16312;SDS011;8265;52.622;13.296;2023-10-31T04:53:47;1.80;;;1.20;;
16312;SDS011;8265;52.622;13.296;2023-10-31T04:59:08;4.20;;;3.50;;
16312;SDS011;8265;52.622;13.296;2023-10-31T05:04:29;2.10;;;1.60;;
16312;SDS011;8265;52.622;13.296;2023-10-31T05:09:50;2.20;;;2.00;;
16312;SDS011;8265;52.622;13.296;2023-10-31T05:15:11;3.60;;;3.40;;
16312;SDS011;8265;52.622;13.296;2023-10-31T05:20:32;3.20;;;2.20;;
16312;SDS011;8265;52.622;13.296;2023-10-31T05:25:53;2.40;;;2.10;;
16312;SDS011;8265;52.622;13.296;2023-10-31T05:31:17;1.10;;;1.10;;
16312;SDS011;8265;52.622;13.296;2023-10-31T05:36:35;4.10;;;3.80;;
16312;SDS011;8265;52.622;13.296;2023-10-31T05:41:56;3.10;;;1.70;;
16312;SDS011;8265;52.622;13.296;2023-10-31T05:47:17;2.40;;;2.20;;
16312;SDS011;8265;52.622;13.296;2023-10-31T05:52:38;2.30;;;2.10;;
16312;SDS011;8265;52.622;13.296;2023-10-31T05:57:59;1.50;;;1.40;;
16312;SDS011;8265;52.622;13.296;2023-10-31T06:03:20;4.30;;;1.80;;
16312;SDS011;8265;52.622;13.296;2023-10-31T06:08:41;1.40;;;1.30;;
16312;SDS011;8265;52.622;13.296;2023-10-31T06:14:02;2.60;;;1.50;;
16312;SDS011;8265;52.622;13.296;2023-10-31T06:19:23;2.50;;;2.30;;
16312;SDS011;8265;52.622;13.296;2023-10-31T06:24:44;2.70;;;2.50;;
16312;SDS011;8265;52.622;13.296;2023-10-31T06:30:05;1.70;;;1.60;;
16312;SDS011;8265;52.622;13.296;2023-10-31T06:35:26;3.40;;;3.10;;
16312;SDS011;8265;52.622;13.296;2023-10-31T06:40:47;2.60;;;2.40;;
16312;SDS011;8265;52.622;13.296;2023-10-31T06:46:08;4.90;;;3.40;;
16312;SDS011;8265;52.622;13.296;2023-10-31T06:51:29;5.90;;;3.50;;
16312;SDS011;8265;52.622;13.296;2023-10-31T06:56:50;3.60;;;3.00;;
16312;SDS011;8265;52.622;13.296;2023-10-31T07:02:11;3.00;;;2.50;;
16312;SDS011;8265;52.622;13.296;2023-10-31T07:07:32;9.00;;;5.20;;
16312;SDS011;8265;52.622;13.296;2023-10-31T07:12:53;5.40;;;3.20;;
16312;SDS011;8265;52.622;13.296;2023-10-31T07:18:14;0.50;;;0.50;;
16312;SDS011;8265;52.622;13.296;2023-10-31T07:23:35;3.50;;;2.80;;
16312;SDS011;8265;52.622;13.296;2023-10-31T07:28:56;4.60;;;4.20;;
16312;SDS011;8265;52.622;13.296;2023-10-31T07:34:17;3.50;;;2.80;;
16312;SDS011;8265;52.622;13.296;2023-10-31T07:39:38;2.60;;;2.40;;
16312;SDS011;8265;52.622;13.296;2023-10-31T07:44:59;2.00;;;1.50;;
16312;SDS011;8265;52.622;13.296;2023-10-31T07:50:20;1.50;;;1.40;;
16312;SDS011;8265;52.622;13.296;2023-10-31T07:55:41;3.50;;;2.30;;
16312;SDS011;8265;52.622;13.296;2023-10-31T08:01:02;2.20;;;2.00;;
16312;SDS011;8265;52.622;13.296;2023-10-31T08:06:23;0.40;;;0.40;;
16312;SDS011;8265;52.622;13.296;2023-10-31T08:11:44;1.30;;;1.20;;
16312;SDS011;8265;52.622;13.296;2023-10-31T08:17:05;0.40;;;0.40;;
16312;SDS011;8265;52.622;13.296;2023-10-31T08:22:25;0.40;;;0.40;;
16312;SDS011;8265;52.622;13.296;2023-10-31T08:27:46;2.90;;;2.00;;
16312;SDS011;8265;52.622;13.296;2023-10-31T08:33:07;0.70;;;0.70;;
16312;SDS011;8265;52.622;13.296;2023-10-31T08:38:28;0.70;;;0.60;;
16312;SDS011;8265;52.622;13.296;2023-10-31T08:43:49;0.60;;;0.60;;
16312;SDS011;8265;52.622;13.296;2023-10-31T08:49:10;0.80;;;0.80;;
16312;SDS011;8265;52.622;13.296;2023-10-31T08:54:31;0.60;;;0.60;;
16312;SDS011;8265;52.622;13.296;2023-10-31T08:59:52;9.00;;;0.80;;
16312;SDS011;8265;52.622;13.296;2023-10-31T09:05:13;0.00;;;0.00;;
16312;SDS011;8265;52.622;13.296;2023-10-31T09:10:35;0.40;;;0.40;;
16312;SDS011;8265;52.622;13.296;2023-10-31T09:15:55;0.50;;;0.50;;
16312;SDS011;8265;52.622;13.296;2023-10-31T09:21:16;0.20;;;0.20;;
16312;SDS011;8265;52.622;13.296;2023-10-31T09:26:41;0.40;;;0.40;;
16312;SDS011;8265;52.622;13.296;2023-10-31T09:31:58;5.20;;;0.70;;
16312;SDS011;8265;52.622;13.296;2023-10-31T09:37:19;0.90;;;0.90;;
16312;SDS011;8265;52.622;13.296;2023-10-31T09:42:40;0.20;;;0.20;;
16312;SDS011;8265;52.622;13.296;2023-10-31T09:48:01;0.30;;;0.30;;
16312;SDS011;8265;52.622;13.296;2023-10-31T09:53:22;0.40;;;0.40;;
16312;SDS011;8265;52.622;13.296;2023-10-31T09:58:43;0.40;;;0.40;;
16312;SDS011;8265;52.622;13.296;2023-10-31T10:04:05;0.10;;;0.10;;
16312;SDS011;8265;52.622;13.296;2023-10-31T10:09:26;0.80;;;0.80;;
16312;SDS011;8265;52.622;13.296;2023-10-31T10:14:46;0.30;;;0.30;;
16312;SDS011;8265;52.622;13.296;2023-10-31T10:25:28;0.30;;;0.30;;
16312;SDS011;8265;52.622;13.296;2023-10-31T10:30:49;0.60;;;0.60;;
16312;SDS011;8265;52.622;13.296;2023-10-31T10:36:10;1.30;;;1.00;;
16312;SDS011;8265;52.622;13.296;2023-10-31T10:41:32;0.50;;;0.50;;
16312;SDS011;8265;52.622;13.296;2023-10-31T10:46:54;0.40;;;0.40;;
16312;SDS011;8265;52.622;13.296;2023-10-31T10:52:23;0.60;;;0.60;;
16312;SDS011;8265;52.622;13.296;2023-10-31T10:57:37;0.10;;;0.10;;
16312;SDS011;8265;52.622;13.296;2023-10-31T11:02:55;0.60;;;0.50;;
16312;SDS011;8265;52.622;13.296;2023-10-31T11:08:16;0.30;;;0.30;;
16312;SDS011;8265;52.622;13.296;2023-10-31T11:13:37;0.40;;;0.40;;
16312;SDS011;8265;52.622;13.296;2023-10-31T11:18:58;1.80;;;1.60;;
16312;SDS011;8265;52.622;13.296;2023-10-31T11:24:20;1.10;;;1.00;;
16312;SDS011;8265;52.622;13.296;2023-10-31T11:29:40;0.40;;;0.40;;
16312;SDS011;8265;52.622;13.296;2023-10-31T11:35:01;1.00;;;0.90;;
16312;SDS011;8265;52.622;13.296;2023-10-31T11:40:22;2.20;;;2.00;;
16312;SDS011;8265;52.622;13.296;2023-10-31T11:45:43;1.50;;;0.50;;
16312;SDS011;8265;52.622;13.296;2023-10-31T11:51:04;2.30;;;0.70;;
16312;SDS011;8265;52.622;13.296;2023-10-31T11:56:25;1.90;;;1.40;;
16312;SDS011;8265;52.622;13.296;2023-10-31T12:01:46;0.70;;;0.70;;
16312;SDS011;8265;52.622;13.296;2023-10-31T12:07:07;0.50;;;0.50;;
16312;SDS011;8265;52.622;13.296;2023-10-31T12:12:31;0.30;;;0.30;;
16312;SDS011;8265;52.622;13.296;2023-10-31T12:17:49;0.50;;;0.40;;
16312;SDS011;8265;52.622;13.296;2023-10-31T12:23:10;0.80;;;0.80;;
16312;SDS011;8265;52.622;13.296;2023-10-31T12:28:31;0.10;;;0.10;;
16312;SDS011;8265;52.622;13.296;2023-10-31T12:33:52;0.40;;;0.40;;
16312;SDS011;8265;52.622;13.296;2023-10-31T12:39:13;0.00;;;0.00;;
16312;SDS011;8265;52.622;13.296;2023-10-31T12:44:33;0.60;;;0.60;;
16312;SDS011;8265;52.622;13.296;2023-10-31T12:50:08;0.20;;;0.20;;
16312;SDS011;8265;52.622;13.296;2023-10-31T12:55:16;0.60;;;0.60;;
16312;SDS011;8265;52.622;13.296;2023-10-31T13:00:37;0.30;;;0.30;;
16312;SDS011;8265;52.622;13.296;2023-10-31T13:05:57;0.50;;;0.50;;
16312;SDS011;8265;52.622;13.296;2023-10-31T13:11:21;0.10;;;0.10;;
16312;SDS011;8265;52.622;13.296;2023-10-31T13:16:39;0.40;;;0.40;;
16312;SDS011;8265;52.622;13.296;2023-10-31T13:22:00;0.40;;;0.40;;
16312;SDS011;8265;52.622;13.296;2023-10-31T13:27:21;0.10;;;0.10;;
16312;SDS011;8265;52.622;13.296;2023-10-31T13:32:43;0.40;;;0.40;;
16312;SDS011;8265;52.622;13.296;2023-10-31T13:38:03;0.60;;;0.20;;
16312;SDS011;8265;52.622;13.296;2023-10-31T13:43:25;0.60;;;0.40;;
16312;SDS011;8265;52.622;13.296;2023-10-31T13:48:45;0.00;;;0.00;;
16312;SDS011;8265;52.622;13.296;2023-10-31T13:54:06;0.20;;;0.20;;
16312;SDS011;8265;52.622;13.296;2023-10-31T13:59:27;0.00;;;0.00;;
16312;SDS011;8265;52.622;13.296;2023-10-31T14:04:48;0.20;;;0.20;;
16312;SDS011;8265;52.622;13.296;2023-10-31T14:10:09;0.20;;;0.20;;
16312;SDS011;8265;52.622;13.296;2023-10-31T14:15:30;0.10;;;0.10;;
16312;SDS011;8265;52.622;13.296;2023-10-31T14:20:51;0.10;;;0.10;;
16312;SDS011;8265;52.622;13.296;2023-10-31T14:26:12;0.10;;;0.10;;
16312;SDS011;8265;52.622;13.296;2023-10-31T14:31:37;0.00;;;0.00;;
16312;SDS011;8265;52.622;13.296;2023-10-31T14:36:54;0.20;;;0.20;;
16312;SDS011;8265;52.622;13.296;2023-10-31T14:42:15;0.80;;;0.80;;
16312;SDS011;8265;52.622;13.296;2023-10-31T14:47:36;0.10;;;0.10;;
16312;SDS011;8265;52.622;13.296;2023-10-31T14:52:57;0.10;;;0.10;;
16312;SDS011;8265;52.622;13.296;2023-10-31T14:58:18;0.60;;;0.60;;
16312;SDS011;8265;52.622;13.296;2023-10-31T15:03:39;0.70;;;0.30;;
16312;SDS011;8265;52.622;13.296;2023-10-31T15:09:00;0.00;;;0.00;;
16312;SDS011;8265;52.622;13.296;2023-10-31T15:14:21;0.90;;;0.70;;
16312;SDS011;8265;52.622;13.296;2023-10-31T15:19:42;0.20;;;0.20;;
16312;SDS011;8265;52.622;13.296;2023-10-31T15:25:03;0.50;;;0.50;;
16312;SDS011;8265;52.622;13.296;2023-10-31T15:30:24;0.30;;;0.30;;
16312;SDS011;8265;52.622;13.296;2023-10-31T15:35:45;0.50;;;0.50;;
16312;SDS011;8265;52.622;13.296;2023-10-31T15:41:06;0.10;;;0.10;;
16312;SDS011;8265;52.622;13.296;2023-10-31T15:46:27;0.60;;;0.60;;
16312;SDS011;8265;52.622;13.296;2023-10-31T15:51:48;0.30;;;0.30;;
16312;SDS011;8265;52.622;13.296;2023-10-31T15:57:09;0.40;;;0.40;;
16312;SDS011;8265;52.622;13.296;2023-10-31T16:02:30;0.30;;;0.30;;
16312;SDS011;8265;52.622;13.296;2023-10-31T16:07:51;0.20;;;0.20;;
16312;SDS011;8265;52.622;13.296;2023-10-31T16:13:12;1.30;;;1.20;;
16312;SDS011;8265;52.622;13.296;2023-10-31T16:18:33;0.40;;;0.40;;
16312;SDS011;8265;52.622;13.296;2023-10-31T16:23:54;0.00;;;0.00;;
16312;SDS011;8265;52.622;13.296;2023-10-31T16:29:15;0.30;;;0.30;;
16312;SDS011;8265;52.622;13.296;2023-10-31T16:34:36;0.70;;;0.70;;
16312;SDS011;8265;52.622;13.296;2023-10-31T16:39:57;0.60;;;0.40;;
16312;SDS011;8265;52.622;13.296;2023-10-31T16:45:18;0.60;;;0.40;;
16312;SDS011;8265;52.622;13.296;2023-10-31T16:50:39;0.20;;;0.20;;
16312;SDS011;8265;52.622;13.296;2023-10-31T16:56:00;0.60;;;0.60;;
16312;SDS011;8265;52.622;13.296;2023-10-31T17:01:21;0.60;;;0.60;;
16312;SDS011;8265;52.622;13.296;2023-10-31T17:06:42;1.00;;;0.90;;
16312;SDS011;8265;52.622;13.296;2023-10-31T17:12:03;1.10;;;0.80;;
16312;SDS011;8265;52.622;13.296;2023-10-31T17:17:24;0.30;;;0.30;;
16312;SDS011;8265;52.622;13.296;2023-10-31T17:22:45;1.20;;;1.00;;
16312;SDS011;8265;52.622;13.296;2023-10-31T17:28:06;0.70;;;0.70;;
16312;SDS011;8265;52.622;13.296;2023-10-31T17:33:27;1.40;;;1.30;;
16312;SDS011;8265;52.622;13.296;2023-10-31T17:38:48;0.30;;;0.30;;
16312;SDS011;8265;52.622;13.296;2023-10-31T17:44:09;1.00;;;1.00;;
16312;SDS011;8265;52.622;13.296;2023-10-31T17:49:30;1.90;;;1.80;;
16312;SDS011;8265;52.622;13.296;2023-10-31T17:54:51;0.90;;;0.90;;
16312;SDS011;8265;52.622;13.296;2023-10-31T18:00:12;0.80;;;0.80;;
16312;SDS011;8265;52.622;13.296;2023-10-31T18:05:33;0.40;;;0.40;;
16312;SDS011;8265;52.622;13.296;2023-10-31T18:10:54;1.40;;;1.30;;
16312;SDS011;8265;52.622;13.296;2023-10-31T18:16:15;0.70;;;0.70;;
16312;SDS011;8265;52.622;13.296;2023-10-31T18:21:36;0.50;;;0.50;;
16312;SDS011;8265;52.622;13.296;2023-10-31T18:26:57;1.50;;;1.30;;
16312;SDS011;8265;52.622;13.296;2023-10-31T18:32:18;1.10;;;1.10;;
16312;SDS011;8265;52.622;13.296;2023-10-31T18:37:39;0.80;;;0.80;;
16312;SDS011;8265;52.622;13.296;2023-10-31T18:43:00;1.90;;;0.70;;
16312;SDS011;8265;52.622;13.296;2023-10-31T18:48:21;1.30;;;1.20;;
16312;SDS011;8265;52.622;13.296;2023-10-31T18:53:42;1.60;;;1.50;;
16312;SDS011;8265;52.622;13.296;2023-10-31T18:59:03;1.40;;;1.20;;
16312;SDS011;8265;52.622;13.296;2023-10-31T19:04:24;0.50;;;0.50;;
16312;SDS011;8265;52.622;13.296;2023-10-31T19:09:45;0.70;;;0.70;;
16312;SDS011;8265;52.622;13.296;2023-10-31T19:15:06;0.60;;;0.60;;
16312;SDS011;8265;52.622;13.296;2023-10-31T19:20:27;1.10;;;1.10;;
16312;SDS011;8265;52.622;13.296;2023-10-31T19:25:48;0.30;;;0.30;;
16312;SDS011;8265;52.622;13.296;2023-10-31T19:31:09;0.50;;;0.50;;
16312;SDS011;8265;52.622;13.296;2023-10-31T19:36:30;0.40;;;0.40;;
16312;SDS011;8265;52.622;13.296;2023-10-31T19:41:51;0.30;;;0.30;;
16312;SDS011;8265;52.622;13.296;2023-10-31T19:47:12;0.00;;;0.00;;
16312;SDS011;8265;52.622;13.296;2023-10-31T19:52:33;0.10;;;0.10;;
16312;SDS011;8265;52.622;13.296;2023-10-31T19:57:54;0.00;;;0.00;;
16312;SDS011;8265;52.622;13.296;2023-10-31T20:03:15;1.20;;;0.30;;
16312;SDS011;8265;52.622;13.296;2023-10-31T20:08:36;1.50;;;1.50;;
16312;SDS011;8265;52.622;13.296;2023-10-31T20:13:57;0.20;;;0.20;;
16312;SDS011;8265;52.622;13.296;2023-10-31T20:19:18;0.20;;;0.20;;
16312;SDS011;8265;52.622;13.296;2023-10-31T20:24:39;0.20;;;0.20;;
16312;SDS011;8265;52.622;13.296;2023-10-31T20:30:00;0.00;;;0.00;;
16312;SDS011;8265;52.622;13.296;2023-10-31T20:35:21;0.50;;;0.50;;
16312;SDS011;8265;52.622;13.296;2023-10-31T20:40:42;1.20;;;1.10;;
16312;SDS011;8265;52.622;13.296;2023-10-31T20:46:03;0.10;;;0.10;;
16312;SDS011;8265;52.622;13.296;2023-10-31T20:51:24;0.20;;;0.20;;
16312;SDS011;8265;52.622;13.296;2023-10-31T20:56:45;0.30;;;0.30;;
16312;SDS011;8265;52.622;13.296;2023-10-31T21:02:06;0.80;;;0.60;;
16312;SDS011;8265;52.622;13.296;2023-10-31T21:07:27;0.10;;;0.10;;
16312;SDS011;8265;52.622;13.296;2023-10-31T21:12:48;0.50;;;0.50;;
16312;SDS011;8265;52.622;13.296;2023-10-31T21:18:09;0.00;;;0.00;;
16312;SDS011;8265;52.622;13.296;2023-10-31T21:23:30;0.20;;;0.20;;
16312;SDS011;8265;52.622;13.296;2023-10-31T21:28:51;0.00;;;0.00;;
16312;SDS011;8265;52.622;13.296;2023-10-31T21:34:12;0.10;;;0.10;;
16312;SDS011;8265;52.622;13.296;2023-10-31T21:39:33;0.10;;;0.10;;
16312;SDS011;8265;52.622;13.296;2023-10-31T21:44:53;0.10;;;0.10;;
16312;SDS011;8265;52.622;13.296;2023-10-31T21:50:14;0.20;;;0.20;;
16312;SDS011;8265;52.622;13.296;2023-10-31T21:55:35;0.20;;;0.20;;
16312;SDS011;8265;52.622;13.296;2023-10-31T22:00:56;0.50;;;0.50;;
16312;SDS011;8265;52.622;13.296;2023-10-31T22:06:17;0.20;;;0.20;;
16312;SDS011;8265;52.622;13.296;2023-10-31T22:11:38;0.10;;;0.10;;
16312;SDS011;8265;52.622;13.296;2023-10-31T22:16:59;0.10;;;0.10;;
16312;SDS011;8265;52.622;13.296;2023-10-31T22:22:20;0.10;;;0.10;;
16312;SDS011;8265;52.622;13.296;2023-10-31T22:27:41;0.00;;;0.00;;
16312;SDS011;8265;52.622;13.296;2023-10-31T22:33:02;0.20;;;0.20;;
16312;SDS011;8265;52.622;13.296;2023-10-31T22:38:23;1.70;;;1.60;;
16312;SDS011;8265;52.622;13.296;2023-10-31T22:43:44;0.30;;;0.30;;
16312;SDS011;8265;52.622;13.296;2023-10-31T22:49:05;0.00;;;0.00;;
16312;SDS011;8265;52.622;13.296;2023-10-31T22:54:26;0.30;;;0.30;;
16312;SDS011;8265;52.622;13.296;2023-10-31T22:59:47;0.20;;;0.20;;
16312;SDS011;8265;52.622;13.296;2023-10-31T23:05:11;0.00;;;0.00;;
16312;SDS011;8265;52.622;13.296;2023-10-31T23:10:29;0.20;;;0.20;;
16312;SDS011;8265;52.622;13.296;2023-10-31T23:15:50;0.10;;;0.10;;
16312;SDS011;8265;52.622;13.296;2023-10-31T23:21:11;0.10;;;0.10;;
16312;SDS011;8265;52.622;13.296;2023-10-31T23:26:32;0.40;;;0.40;;
16312;SDS011;8265;52.622;13.296;2023-10-31T23:31:53;0.60;;;0.60;;
16312;SDS011;8265;52.622;13.296;2023-10-31T23:37:14;0.10;;;0.10;;
16312;SDS011;8265;52.622;13.296;2023-10-31T23:42:35;0.10;;;0.10;;
16312;SDS011;8265;52.622;13.296;2023-10-31T23:47:56;0.30;;;0.30;;
16312;SDS011;8265;52.622;13.296;2023-10-31T23:53:17;2.00;;;1.90;;
16312;SDS011;8265;52.622;13.296;2023-10-31T23:58:38;0.20;;;0.20;;
